createdAt,value
2018-04-10T00:00:15.362Z,93728.50
2018-04-10T00:02:43.805Z,93724.33
2018-04-10T00:05:12.189Z,93725.22
2018-04-10T00:07:40.562Z,93724.28
2018-04-10T00:10:08.927Z,93720.41
2018-04-10T00:12:37.386Z,93711.41
2018-04-10T00:15:05.761Z,93708.93
2018-04-10T00:17:34.213Z,93712.67
2018-04-10T00:20:02.590Z,93706.55
2018-04-10T00:22:30.953Z,93709.09
2018-04-10T00:24:59.365Z,93706.98
2018-04-10T00:27:27.815Z,93702.66
2018-04-10T00:29:56.192Z,93703.67
2018-04-10T00:32:24.558Z,93700.27
2018-04-10T00:34:52.967Z,93698.17
2018-04-10T00:37:21.342Z,93693.78
2018-04-10T00:39:49.715Z,93697.03
2018-04-10T00:42:18.085Z,93696.50
2018-04-10T00:44:46.605Z,93692.91
2018-04-10T00:47:14.983Z,93693.28
2018-04-10T00:49:43.346Z,93688.77
2018-04-10T00:52:11.711Z,93686.92
2018-04-10T00:54:40.091Z,93690.47
2018-04-10T00:57:08.576Z,93691.13
2018-04-10T00:59:36.958Z,93685.50
2018-04-10T01:02:05.338Z,93688.80
2018-04-10T01:04:33.723Z,93691.39
2018-04-10T01:07:02.090Z,93687.06
2018-04-10T01:09:30.701Z,93689.33
2018-04-10T01:11:59.064Z,93683.66
2018-04-10T01:14:27.442Z,93684.95
2018-04-10T01:16:55.822Z,93685.54
2018-04-10T01:19:24.202Z,93686.34
2018-04-10T01:21:52.643Z,93693.25
2018-04-10T01:24:21.011Z,93694.05
2018-04-10T01:26:49.716Z,93691.17
2018-04-10T01:29:18.137Z,93689.29
2018-04-10T01:31:46.493Z,93693.31
2018-04-10T01:34:14.927Z,93694.09
2018-04-10T01:36:43.400Z,93704.63
2018-04-10T01:39:11.801Z,93700.33
2018-04-10T01:41:40.230Z,93697.84
2018-04-10T01:44:08.585Z,93706.02
2018-04-10T01:46:36.966Z,93696.04
2018-04-10T01:49:05.466Z,93700.73
2018-04-10T01:51:33.889Z,93691.97
2018-04-10T01:54:02.257Z,93699.88
2018-04-10T01:56:30.616Z,93701.34
2018-04-10T01:58:58.977Z,93703.66
2018-04-10T02:01:27.349Z,93704.45
2018-04-10T02:03:55.716Z,93707.86
2018-04-10T02:06:24.220Z,93707.61
2018-04-10T02:08:52.569Z,93711.48
2018-04-10T02:11:20.931Z,93712.16
2018-04-10T02:13:49.391Z,93709.03
2018-04-10T02:16:17.827Z,93706.81
2018-04-10T02:18:46.298Z,93708.98
2018-04-10T02:21:14.654Z,93710.69
2018-04-10T02:23:43.127Z,93709.24
2018-04-10T02:26:11.735Z,93710.05
2018-04-10T02:28:40.087Z,93711.63
2018-04-10T02:31:08.485Z,93713.50
2018-04-10T02:33:36.838Z,93710.97
2018-04-10T02:36:05.197Z,93713.05
2018-04-10T02:38:33.716Z,93718.45
2018-04-10T02:41:02.072Z,93714.41
2018-04-10T02:43:30.468Z,93715.63
2018-04-10T02:45:58.823Z,93712.81
2018-04-10T02:48:27.281Z,93712.42
2018-04-10T02:50:55.713Z,93716.91
2018-04-10T02:53:24.070Z,93718.28
2018-04-10T02:55:52.429Z,93713.30
2018-04-10T02:58:20.797Z,93716.08
2018-04-10T03:00:49.310Z,93722.27
2018-04-10T03:03:17.662Z,93717.42
2018-04-10T03:05:46.012Z,93722.31
2018-04-10T03:08:14.480Z,93719.00
2018-04-10T03:10:42.849Z,93721.77
2018-04-10T03:13:11.334Z,93715.77
2018-04-10T03:15:39.762Z,93720.63
2018-04-10T03:18:08.197Z,93722.95
2018-04-10T03:20:36.567Z,93721.37
2018-04-10T03:23:04.933Z,93719.97
2018-04-10T03:25:33.328Z,93717.13
2018-04-10T03:28:01.699Z,93713.73
2018-04-10T03:30:30.173Z,93716.16
2018-04-10T03:32:58.569Z,93716.79
2018-04-10T03:35:26.967Z,93719.70
2018-04-10T03:37:55.361Z,93724.71
2018-04-10T03:40:23.752Z,93727.45
2018-04-10T03:42:52.178Z,93726.23
2018-04-10T03:45:20.574Z,93729.45
2018-04-10T03:47:49.021Z,93738.58
2018-04-10T03:50:17.372Z,93742.29
2018-04-10T03:52:45.770Z,93745.98
2018-04-10T03:55:14.181Z,93751.72
2018-04-10T03:57:42.528Z,93750.20
2018-04-10T04:00:10.972Z,93761.02
2018-04-10T04:02:39.364Z,93761.25
2018-04-10T04:05:07.816Z,93765.31
2018-04-10T04:07:36.212Z,93762.39
2018-04-10T04:10:04.606Z,93764.94
2018-04-10T04:12:33.050Z,93766.75
2018-04-10T04:15:01.439Z,93767.17
2018-04-10T04:17:33.708Z,93774.66
2018-04-10T04:20:13.741Z,93777.96
2018-04-10T04:22:42.180Z,93780.56
2018-04-10T04:25:10.602Z,93781.69
2018-04-10T04:27:38.985Z,93786.91
2018-04-10T04:30:07.375Z,93786.27
2018-04-10T04:32:35.756Z,93783.05
2018-04-10T04:35:04.319Z,93784.78
2018-04-10T04:37:32.720Z,93781.58
2018-04-10T04:40:01.444Z,93782.47
2018-04-10T04:42:30.066Z,93784.27
2018-04-10T04:44:58.451Z,93782.51
2018-04-10T04:47:26.981Z,93778.95
2018-04-10T04:49:55.632Z,93785.00
2018-04-10T04:52:24.283Z,93785.22
2018-04-10T04:54:52.668Z,93787.06
2018-04-10T04:57:21.047Z,93787.83
2018-04-10T04:59:50.014Z,93782.86
2018-04-10T05:02:18.380Z,93783.39
2018-04-10T05:04:46.730Z,93783.58
2018-04-10T05:07:15.094Z,93782.09
2018-04-10T05:09:43.496Z,93785.89
2018-04-10T05:12:11.865Z,93790.83
2018-04-10T05:14:40.266Z,93791.23
2018-04-10T05:17:08.688Z,93790.22
2018-04-10T05:19:37.064Z,93786.11
2018-04-10T05:22:05.449Z,93785.02
2018-04-10T05:24:33.896Z,93787.84
2018-04-10T05:27:02.281Z,93784.23
2018-04-10T05:29:30.812Z,93783.50
2018-04-10T05:31:59.177Z,93787.02
2018-04-10T05:34:27.581Z,93780.67
2018-04-10T05:36:55.958Z,93777.02
2018-04-10T05:39:24.319Z,93780.00
2018-04-10T05:41:52.692Z,93768.25
2018-04-10T05:44:21.049Z,93778.70
2018-04-10T05:46:49.424Z,93780.08
2018-04-10T05:49:17.820Z,93774.70
2018-04-10T05:51:46.284Z,93782.19
2018-04-10T05:54:14.678Z,93787.16
2018-04-10T05:56:43.063Z,93779.40
2018-04-10T05:59:11.496Z,93787.67
2018-04-10T06:01:39.878Z,93787.03
2018-04-10T06:04:08.283Z,93788.67
2018-04-10T06:06:36.680Z,93795.87
2018-04-10T06:09:05.113Z,93790.70
2018-04-10T06:11:33.588Z,93799.27
2018-04-10T06:14:02.395Z,93794.35
2018-04-10T06:16:30.777Z,93794.14
2018-04-10T06:18:59.150Z,93788.83
2018-04-10T06:21:27.578Z,93790.09
2018-04-10T06:23:55.981Z,93795.25
2018-04-10T06:26:24.520Z,93791.40
2018-04-10T06:28:52.940Z,93789.48
2018-04-10T06:31:21.338Z,93788.02
2018-04-10T06:33:49.740Z,93783.86
2018-04-10T06:36:18.151Z,93788.13
2018-04-10T06:38:46.630Z,93787.20
2018-04-10T06:41:15.056Z,93778.98
2018-04-10T06:43:43.556Z,93791.27
2018-04-10T06:46:11.947Z,93790.23
2018-04-10T06:48:40.401Z,93791.98
2018-04-10T06:51:08.854Z,93788.58
2018-04-10T06:53:37.253Z,93789.73
2018-04-10T06:56:05.638Z,93793.72
2018-04-10T06:58:34.032Z,93798.52
2018-04-10T07:01:02.436Z,93803.64
2018-04-10T07:03:30.930Z,93799.59
2018-04-10T07:05:59.461Z,93803.41
2018-04-10T07:08:27.853Z,93807.23
2018-04-10T07:10:56.288Z,93802.81
2018-04-10T07:13:24.684Z,93799.15
2018-04-10T07:15:53.142Z,93804.37
2018-04-10T07:18:21.595Z,93808.16
2018-04-10T07:20:49.991Z,93808.41
2018-04-10T07:23:18.425Z,93811.83
2018-04-10T07:25:46.818Z,93806.96
2018-04-10T07:28:15.301Z,93814.06
2018-04-10T07:30:43.689Z,93815.75
2018-04-10T07:33:12.033Z,93819.66
2018-04-10T07:35:40.418Z,93820.02
2018-04-10T07:38:08.760Z,93818.87
2018-04-10T07:40:37.133Z,93821.02
2018-04-10T07:43:05.476Z,93816.88
2018-04-10T07:45:33.841Z,93818.03
2018-04-10T07:48:02.275Z,93818.35
2018-04-10T07:50:30.661Z,93817.52
2018-04-10T07:52:59.029Z,93813.52
2018-04-10T07:55:27.483Z,93810.18
2018-04-10T07:57:55.845Z,93816.53
2018-04-10T08:00:24.194Z,93815.77
2018-04-10T08:02:52.560Z,93806.52
2018-04-10T08:05:20.920Z,93812.73
2018-04-10T08:07:49.378Z,93812.22
2018-04-10T08:10:17.774Z,93813.08
2018-04-10T08:12:46.131Z,93808.23
2018-04-10T08:15:14.515Z,93803.95
2018-04-10T08:17:42.921Z,93814.41
2018-04-10T08:20:11.311Z,93823.22
2018-04-10T08:22:39.657Z,93820.50
2018-04-10T08:25:08.085Z,93817.17
2018-04-10T08:27:36.484Z,93815.59
2018-04-10T08:30:04.982Z,93813.09
2018-04-10T08:32:33.353Z,93815.61
2018-04-10T08:35:01.793Z,93812.34
2018-04-10T08:37:30.237Z,93815.90
2018-04-10T08:39:58.592Z,93814.98
2018-04-10T08:42:26.954Z,93810.14
2018-04-10T08:44:55.324Z,93809.97
2018-04-10T08:47:28.083Z,93809.33
2018-04-10T08:49:56.467Z,93809.56
2018-04-10T08:52:24.840Z,93813.53
2018-04-10T08:54:53.200Z,93817.73
2018-04-10T08:57:21.551Z,93817.64
2018-04-10T08:59:49.987Z,93815.44
2018-04-10T09:02:18.341Z,93815.42
2018-04-10T09:04:46.736Z,93816.56
2018-04-10T09:07:15.288Z,93815.31
2018-04-10T09:09:43.686Z,93814.92
2018-04-10T09:12:12.218Z,93807.17
2018-04-10T09:14:40.570Z,93816.48
2018-04-10T09:17:08.917Z,93817.37
2018-04-10T09:19:37.297Z,93811.18
2018-04-10T09:22:05.650Z,93811.75
2018-04-10T09:24:34.117Z,93805.82
2018-04-10T09:27:02.480Z,93805.19
2018-04-10T09:29:30.848Z,93806.70
2018-04-10T09:31:59.196Z,93809.88
2018-04-10T09:34:27.627Z,93803.48
2018-04-10T09:36:56.012Z,93810.19
2018-04-10T09:39:24.380Z,93802.40
2018-04-10T09:41:52.753Z,93806.92
2018-04-10T09:44:21.119Z,93802.94
2018-04-10T09:46:49.491Z,93809.36
2018-04-10T09:49:18.025Z,93806.39
2018-04-10T09:51:46.394Z,93804.37
2018-04-10T09:54:14.791Z,93805.39
2018-04-10T09:56:43.162Z,93803.00
2018-04-10T09:59:11.519Z,93800.12
2018-04-10T10:01:39.964Z,93796.66
2018-04-10T10:04:08.318Z,93808.86
2018-04-10T10:06:36.670Z,93807.36
2018-04-10T10:09:05.813Z,93813.33
2018-04-10T10:11:34.233Z,93809.52
2018-04-10T10:14:02.643Z,93807.54
2018-04-10T10:16:31.035Z,93811.65
2018-04-10T10:18:59.401Z,93810.04
2018-04-10T10:21:27.753Z,93810.48
2018-04-10T10:23:56.148Z,93802.95
2018-04-10T10:26:24.699Z,93808.21
2018-04-10T10:28:53.049Z,93816.44
2018-04-10T10:31:21.444Z,93809.53
2018-04-10T10:33:49.828Z,93815.19
2018-04-10T10:36:18.223Z,93820.61
2018-04-10T10:38:46.685Z,93820.56
2018-04-10T10:41:15.142Z,93817.31
2018-04-10T10:43:43.510Z,93829.34
2018-04-10T10:46:11.892Z,93815.55
2018-04-10T10:48:40.351Z,93822.81
2018-04-10T10:51:08.817Z,93827.23
2018-04-10T10:53:37.225Z,93818.46
2018-04-10T10:56:05.617Z,93818.77
2018-04-10T10:58:34.141Z,93813.80
2018-04-10T11:01:02.538Z,93812.34
2018-04-10T11:03:31.074Z,93813.13
2018-04-10T11:05:59.579Z,93810.80
2018-04-10T11:08:28.050Z,93823.44
2018-04-10T11:10:56.462Z,93809.95
2018-04-10T11:13:24.858Z,93809.58
2018-04-10T11:15:53.301Z,93819.72
2018-04-10T11:18:21.786Z,93817.13
2018-04-10T11:20:50.205Z,93822.04
2018-04-10T11:23:18.605Z,93816.30
2018-04-10T11:25:47.083Z,93815.36
2018-04-10T11:28:15.531Z,93812.86
2018-04-10T11:30:43.931Z,93816.72
2018-04-10T11:33:12.461Z,93807.84
2018-04-10T11:35:40.882Z,93809.29
2018-04-10T11:38:09.333Z,93807.38
2018-04-10T11:40:37.780Z,93815.24
2018-04-10T11:43:06.172Z,93814.31
2018-04-10T11:45:34.748Z,93813.15
2018-04-10T11:48:03.121Z,93808.30
2018-04-10T11:50:31.542Z,93810.80
2018-04-10T11:53:00.101Z,93803.25
2018-04-10T11:55:28.503Z,93796.03
2018-04-10T11:57:56.907Z,93797.95
2018-04-10T12:00:25.306Z,93801.75
2018-04-10T12:02:53.771Z,93793.59
2018-04-10T12:05:22.168Z,93795.42
2018-04-10T12:07:50.637Z,93792.98
2018-04-10T12:10:19.193Z,93791.24
2018-04-10T12:12:47.597Z,93786.23
2018-04-10T12:15:16.020Z,93782.98
2018-04-10T12:17:44.457Z,93778.05
2018-04-10T12:20:12.848Z,93781.98
2018-04-10T12:22:41.304Z,93785.70
2018-04-10T12:25:09.706Z,93787.12
2018-04-10T12:27:38.198Z,93787.66
2018-04-10T12:30:06.593Z,93792.58
2018-04-10T12:32:34.990Z,93791.59
2018-04-10T12:35:03.396Z,93787.69
2018-04-10T12:37:31.807Z,93787.84
2018-04-10T12:40:00.228Z,93787.91
2018-04-10T12:42:28.658Z,93794.13
2018-04-10T12:44:57.032Z,93789.09
2018-04-10T12:47:25.437Z,93784.62
2018-04-10T12:49:53.816Z,93780.66
2018-04-10T12:52:22.354Z,93781.06
2018-04-10T12:54:50.753Z,93774.23
2018-04-10T12:57:19.191Z,93779.38
2018-04-10T12:59:47.557Z,93779.72
2018-04-10T13:02:15.978Z,93780.00
2018-04-10T13:04:44.461Z,93778.42
2018-04-10T13:07:12.873Z,93771.38
2018-04-10T13:09:41.319Z,93779.72
2018-04-10T13:12:09.746Z,93771.16
2018-04-10T13:14:38.132Z,93763.98
2018-04-10T13:17:06.693Z,93764.75
2018-04-10T13:19:35.180Z,93761.84
2018-04-10T13:22:03.621Z,93759.27
2018-04-10T13:24:32.346Z,93751.08
2018-04-10T13:27:01.046Z,93750.92
2018-04-10T13:29:29.424Z,93745.75
2018-04-10T13:31:57.837Z,93747.05
2018-04-10T13:34:26.287Z,93750.48
2018-04-10T13:36:55.081Z,93734.56
2018-04-10T13:39:25.362Z,93738.92
2018-04-10T13:41:53.865Z,93735.66
2018-04-10T13:44:22.837Z,93743.68
2018-04-10T13:46:51.224Z,93740.27
2018-04-10T13:49:19.609Z,93737.06
2018-04-10T13:51:48.068Z,93737.38
2018-04-10T13:54:16.569Z,93735.31
2018-04-10T13:56:44.968Z,93730.06
2018-04-10T13:59:13.513Z,93726.61
2018-04-10T14:01:42.046Z,93737.05
2018-04-10T14:04:10.593Z,93738.34
2018-04-10T14:06:38.968Z,93743.62
2018-04-10T14:09:07.439Z,93728.31
2018-04-10T14:11:35.841Z,93718.48
2018-04-10T14:14:08.275Z,93717.29
2018-04-10T14:16:36.751Z,93720.66
2018-04-10T14:19:05.223Z,93722.77
2018-04-10T14:21:33.621Z,93719.17
2018-04-10T14:24:02.009Z,93713.22
2018-04-10T14:26:30.438Z,93713.30
2018-04-10T14:28:58.893Z,93714.26
2018-04-10T14:31:27.256Z,93708.00
2018-04-10T14:33:55.653Z,93715.75
2018-04-10T14:36:24.021Z,93703.70
2018-04-10T14:38:52.459Z,93712.48
2018-04-10T14:41:21.146Z,93703.48
2018-04-10T14:43:50.094Z,93701.41
2018-04-10T14:46:19.401Z,93703.86
2018-04-10T14:48:47.844Z,93691.99
2018-04-10T14:51:16.302Z,93683.34
2018-04-10T14:53:45.111Z,93685.62
2018-04-10T14:56:14.421Z,93687.41
2018-04-10T14:58:42.930Z,93685.38
2018-04-10T15:01:11.316Z,93682.26
2018-04-10T15:03:45.290Z,93690.92
2018-04-10T15:06:13.695Z,93691.88
2018-04-10T15:08:42.187Z,93681.09
2018-04-10T15:11:10.645Z,93684.53
2018-04-10T15:13:39.284Z,93688.20
2018-04-10T15:16:08.908Z,93686.19
2018-04-10T15:18:37.458Z,93683.62
2018-04-10T15:21:05.873Z,93679.55
2018-04-10T15:23:34.271Z,93684.01
2018-04-10T15:26:02.664Z,93684.64
2018-04-10T15:28:31.103Z,93674.09
2018-04-10T15:30:59.606Z,93680.42
2018-04-10T15:33:27.995Z,93682.22
2018-04-10T15:35:57.812Z,93683.89
2018-04-10T15:38:26.291Z,93683.40
2018-04-10T15:40:54.855Z,93676.45
2018-04-10T15:43:23.248Z,93677.41
2018-04-10T15:45:51.772Z,93677.26
2018-04-10T15:48:20.316Z,93671.87
2018-04-10T15:50:48.845Z,93667.97
2018-04-10T15:53:17.301Z,93670.08
2018-04-10T15:55:45.768Z,93671.59
2018-04-10T15:58:14.527Z,93667.84
2018-04-10T16:00:43.090Z,93666.22
2018-04-10T16:03:11.529Z,93661.20
2018-04-10T16:05:39.965Z,93663.12
2018-04-10T16:08:08.358Z,93669.74
2018-04-10T16:10:36.782Z,93670.39
2018-04-10T16:13:05.711Z,93664.08
2018-04-10T16:15:34.261Z,93672.16
2018-04-10T16:18:02.720Z,93669.80
2018-04-10T16:20:31.187Z,93665.68
2018-04-10T16:22:59.660Z,93670.94
2018-04-10T16:25:28.125Z,93661.03
2018-04-10T16:27:57.604Z,93657.42
2018-04-10T16:30:26.090Z,93653.02
2018-04-10T16:32:54.547Z,93654.12
2018-04-10T16:35:22.973Z,93653.57
2018-04-10T16:37:51.374Z,93646.52
2018-04-10T16:40:19.808Z,93650.18
2018-04-10T16:42:48.400Z,93647.09
2018-04-10T16:45:16.909Z,93650.09
2018-04-10T16:47:45.302Z,93652.55
2018-04-10T16:50:14.018Z,93653.23
2018-04-10T16:52:42.408Z,93646.76
2018-04-10T16:55:10.964Z,93644.52
2018-04-10T16:57:39.828Z,93649.12
2018-04-10T17:00:09.122Z,93654.19
2018-04-10T17:02:37.616Z,93646.56
2018-04-10T17:05:06.186Z,93654.78
2018-04-10T17:07:34.687Z,93651.73
2018-04-10T17:10:03.141Z,93664.38
2018-04-10T17:12:31.570Z,93659.59
2018-04-10T17:14:59.940Z,93654.15
2018-04-10T17:17:29.254Z,93656.76
2018-04-10T17:19:57.632Z,93656.61
2018-04-10T17:22:26.097Z,93666.98
2018-04-10T17:24:54.488Z,93662.22
2018-04-10T17:27:22.889Z,93664.02
2018-04-10T17:29:51.332Z,93669.02
2018-04-10T17:32:19.812Z,93666.73
2018-04-10T17:34:48.281Z,93668.30
2018-04-10T17:37:16.661Z,93674.20
2018-04-10T17:39:45.128Z,93682.81
2018-04-10T17:42:13.530Z,93673.47
2018-04-10T17:47:41.613Z,93674.97
2018-04-10T17:50:10.090Z,93677.84
2018-04-10T17:52:38.666Z,93680.03
2018-04-10T17:55:07.105Z,93684.52
2018-04-10T17:57:35.574Z,93688.59
2018-04-10T18:00:04.025Z,93692.27
2018-04-10T18:02:32.629Z,93699.88
2018-04-10T18:05:01.229Z,93698.05
2018-04-10T18:07:30.606Z,93702.22
2018-04-10T18:09:59.375Z,93709.38
2018-04-10T18:12:27.793Z,93718.45
2018-04-10T18:14:56.214Z,93725.63
2018-04-10T18:17:24.774Z,93722.91
2018-04-10T18:19:53.189Z,93716.75
2018-04-10T18:22:21.600Z,93717.97
2018-04-10T18:24:50.098Z,93719.96
2018-04-10T18:27:18.522Z,93722.77
2018-04-10T18:29:46.897Z,93719.21
2018-04-10T18:32:15.316Z,93723.55
2018-04-10T18:34:43.706Z,93728.33
2018-04-10T18:37:12.076Z,93730.30
2018-04-10T18:39:40.485Z,93727.99
2018-04-10T18:42:08.863Z,93735.20
2018-04-10T18:44:37.397Z,93740.11
2018-04-10T18:47:05.771Z,93742.30
2018-04-10T18:49:34.144Z,93746.28
2018-04-10T18:52:02.510Z,93746.23
2018-04-10T18:54:30.870Z,93752.70
2018-04-10T18:56:59.292Z,93749.75
2018-04-10T18:59:27.661Z,93752.23
2018-04-10T19:01:56.134Z,93748.98
2018-04-10T19:04:24.518Z,93752.33
2018-04-10T19:06:53.280Z,93752.81
2018-04-10T19:09:23.404Z,93754.84
2018-04-10T19:11:52.003Z,93764.38
2018-04-10T19:14:20.864Z,93784.08
2018-04-10T19:16:49.321Z,93790.95
2018-04-10T19:19:17.751Z,93793.69
2018-04-10T19:21:46.122Z,93797.47
2018-04-10T19:24:15.446Z,93812.20
2018-04-10T19:26:43.965Z,93806.78
2018-04-10T19:29:12.549Z,93809.00
2018-04-10T19:31:42.820Z,93814.20
2018-04-10T19:34:11.426Z,93812.09
2018-04-10T19:36:39.881Z,93811.98
2018-04-10T19:41:51.064Z,93816.26
2018-04-10T19:44:19.493Z,93826.72
2018-04-10T19:46:47.885Z,93828.06
2018-04-10T19:49:16.296Z,93825.92
2018-04-10T19:54:46.294Z,93833.41
2018-04-10T19:57:14.809Z,93835.88
2018-04-10T19:59:43.353Z,93836.06
2018-04-10T20:02:13.835Z,93831.98
2018-04-10T20:04:42.377Z,93832.79
2018-04-10T20:07:10.784Z,93832.74
2018-04-10T20:09:39.186Z,93832.27
2018-04-10T20:12:07.581Z,93823.39
2018-04-10T20:14:36.166Z,93824.59
2018-04-10T20:17:05.164Z,93829.47
2018-04-10T20:19:33.657Z,93830.67
2018-04-10T20:22:02.787Z,93819.16
2018-04-10T20:24:31.344Z,93821.75
2018-04-10T20:26:59.749Z,93824.12
2018-04-10T20:29:28.114Z,93825.72
2018-04-10T20:31:56.489Z,93827.10
2018-04-10T20:34:25.918Z,93823.15
2018-04-10T20:36:54.318Z,93828.19
2018-04-10T20:39:22.708Z,93828.19
2018-04-10T20:41:51.098Z,93826.72
2018-04-10T20:44:25.262Z,93828.84
2018-04-10T20:46:57.624Z,93827.97
2018-04-10T20:49:26.018Z,93832.13
2018-04-10T20:51:54.414Z,93830.38
2018-04-10T20:54:22.792Z,93830.16
2018-04-10T20:56:51.188Z,93831.31
2018-04-10T20:59:19.660Z,93827.27
2018-04-10T21:01:48.160Z,93837.73
2018-04-10T21:04:16.684Z,93832.62
2018-04-10T21:06:45.077Z,93833.13
2018-04-10T21:09:13.538Z,93836.55
2018-04-10T21:11:42.001Z,93835.22
2018-04-10T21:14:10.401Z,93833.80
2018-04-10T21:16:38.880Z,93833.42
2018-04-10T21:19:07.288Z,93843.37
2018-04-10T21:21:35.768Z,93837.75
2018-04-10T21:24:04.219Z,93843.19
2018-04-10T21:26:32.609Z,93848.00
2018-04-10T21:29:00.997Z,93848.97
2018-04-10T21:31:29.407Z,93855.58
2018-04-10T21:33:58.096Z,93857.52
2018-04-10T21:36:26.518Z,93859.92
2018-04-10T21:38:54.883Z,93862.34
2018-04-10T21:41:23.345Z,93863.27
2018-04-10T21:43:51.769Z,93867.17
2018-04-10T21:46:20.169Z,93863.00
2018-04-10T21:48:48.608Z,93872.17
2018-04-10T21:51:17.001Z,93869.76
2018-04-10T21:53:45.429Z,93868.93
2018-04-10T21:56:13.789Z,93870.58
2018-04-10T21:58:42.181Z,93864.05
2018-04-10T22:01:10.552Z,93870.70
2018-04-10T22:03:38.917Z,93872.16
2018-04-10T22:06:07.331Z,93875.58
2018-04-10T22:08:35.693Z,93878.55
2018-04-10T22:11:04.103Z,93872.38
2018-04-10T22:13:32.482Z,93874.66
2018-04-10T22:16:01.011Z,93885.47
2018-04-10T22:18:29.402Z,93881.70
2018-04-10T22:20:57.791Z,93877.55
2018-04-10T22:23:26.160Z,93872.70
2018-04-10T22:25:54.534Z,93880.84
2018-04-10T22:28:22.982Z,93878.52
2018-04-10T22:30:51.459Z,93882.38
2018-04-10T22:33:19.805Z,93883.25
2018-04-10T22:35:48.179Z,93884.17
2018-04-10T22:38:16.642Z,93884.22
2018-04-10T22:40:45.161Z,93893.30
2018-04-10T22:43:13.543Z,93887.33
2018-04-10T22:45:41.900Z,93886.10
2018-04-10T22:48:10.265Z,93891.41
2018-04-10T22:50:38.632Z,93894.49
2018-04-10T22:53:07.062Z,93890.75
2018-04-10T22:55:35.430Z,93891.38
2018-04-10T22:58:03.781Z,93896.67
2018-04-10T23:00:49.515Z,93889.08
2018-04-10T23:03:17.933Z,93889.52
2018-04-10T23:05:46.421Z,93888.72
2018-04-10T23:08:14.942Z,93885.67
2018-04-10T23:10:43.315Z,93885.47
2018-04-10T23:13:11.692Z,93887.02
2018-04-10T23:15:40.059Z,93886.92
2018-04-10T23:18:08.445Z,93890.77
2018-04-10T23:20:36.849Z,93892.73
2018-04-10T23:23:05.281Z,93889.30
2018-04-10T23:25:33.654Z,93897.22
2018-04-10T23:28:02.041Z,93897.80
2018-04-10T23:30:30.414Z,93900.64
2018-04-10T23:32:58.779Z,93906.38
2018-04-10T23:35:27.285Z,93901.55
2018-04-10T23:37:55.647Z,93904.14
2018-04-10T23:40:24.074Z,93902.31
2018-04-10T23:42:52.472Z,93903.66
2018-04-10T23:45:20.849Z,93907.12
2018-04-10T23:47:49.221Z,93903.70
2018-04-10T23:50:17.589Z,93909.88
2018-04-10T23:52:45.970Z,93914.77
2018-04-10T23:55:14.324Z,93914.06
2018-04-10T23:57:42.713Z,93907.17
